Time;durP1;ratioP1;P1;durP2;ratioP2;P2;SDS_P1;SDS_P2;PMS_P1;PMS_P2;Temp;Humidity;BMP_temperature;BMP_pressure;BME280_temperature;BME280_humidity;BME280_pressure;Samples;Min_cycle;Max_cycle;Signal;HPM_P1;HPM_P2
2022/11/08 00:02:28;;;;;;;12.13;2.90;;;;;;;-145.18;100.00;46687.75;5049173;28;20048;-68
2022/11/08 00:04:54;;;;;;;10.13;2.83;;;;;;;-145.18;100.00;46701.41;5049459;28;20049;-68
2022/11/08 00:15:37;;;;;;;8.20;2.80;;;;;;;-145.18;100.00;46681.88;5049541;28;20110;-68
2022/11/08 00:18:06;;;;;;;13.47;2.70;;;;;;;-145.18;100.00;46681.88;5049210;28;20338;-68
2022/11/08 00:20:32;;;;;;;11.70;2.80;;;;;;;-145.18;100.00;46683.84;5049431;28;20081;-68
2022/11/08 00:22:58;;;;;;;11.67;3.17;;;;;;;-145.18;100.00;46685.78;5049208;28;20076;-68
2022/11/08 00:25:23;;;;;;;15.03;4.43;;;;;;;-145.18;100.00;46685.78;5049267;28;20047;-67
2022/11/08 00:27:48;;;;;;;10.53;3.20;;;;;;;-145.18;100.00;46681.88;5031328;28;20037;-68
2022/11/08 00:30:14;;;;;;;13.77;3.10;;;;;;;-145.18;100.00;46693.59;5048949;28;20155;-68
2022/11/08 00:32:39;;;;;;;13.37;2.60;;;;;;;-145.18;100.00;46691.66;5049137;28;20119;-68
2022/11/08 00:35:05;;;;;;;15.53;3.60;;;;;;;-145.18;100.00;46677.97;5049417;28;20047;-68
2022/11/08 00:37:30;;;;;;;18.93;2.80;;;;;;;-145.18;100.00;46683.84;5049020;28;20077;-68
2022/11/08 00:39:55;;;;;;;7.67;2.23;;;;;;;-145.18;100.00;46683.84;5052804;28;20438;-68
2022/11/08 00:42:21;;;;;;;10.67;3.17;;;;;;;-145.18;100.00;46679.94;5052619;28;20504;-68
2022/11/08 00:44:46;;;;;;;12.70;3.27;;;;;;;-145.18;100.00;46683.84;5053139;28;20084;-68
2022/11/08 00:47:11;;;;;;;14.73;2.87;;;;;;;-145.18;100.00;46687.75;5052743;28;20126;-68
2022/11/08 00:49:37;;;;;;;9.60;3.23;;;;;;;-145.18;100.00;46685.78;5052895;28;20052;-68
2022/11/08 00:52:03;;;;;;;11.10;2.63;;;;;;;-145.18;100.00;46681.88;5052854;28;20033;-68
2022/11/08 00:54:28;;;;;;;13.83;2.83;;;;;;;-145.18;100.00;46685.78;5052769;28;20033;-68
2022/11/08 00:56:53;;;;;;;11.40;2.70;;;;;;;-145.18;100.00;46679.94;5052471;28;20119;-68
2022/11/08 00:59:19;;;;;;;12.07;3.40;;;;;;;-145.18;100.00;46685.78;5052413;28;20025;-68
2022/11/08 01:01:45;;;;;;;11.50;4.20;;;;;;;-145.18;100.00;46679.94;5052523;28;20032;-68
2022/11/08 01:04:13;;;;;;;16.17;3.13;;;;;;;-145.18;100.00;46679.94;5052751;28;20075;-68
2022/11/08 01:06:39;;;;;;;11.80;2.33;;;;;;;-145.18;100.00;46676.03;5052606;28;20465;-68
2022/11/08 01:09:05;;;;;;;19.27;3.63;;;;;;;-145.18;100.00;46693.59;5052494;28;20037;-68
2022/11/08 01:11:31;;;;;;;14.37;3.83;;;;;;;-145.18;100.00;46676.03;5052288;28;20473;-68
2022/11/08 01:13:59;;;;;;;14.77;4.10;;;;;;;-145.18;100.00;46687.75;5052444;28;20044;-68
2022/11/08 01:16:27;;;;;;;14.93;3.40;;;;;;;-145.18;100.00;46676.03;5051982;28;20513;-68
2022/11/08 01:18:54;;;;;;;12.43;3.60;;;;;;;-145.18;100.00;46679.94;5052564;28;20111;-68
2022/11/08 01:21:21;;;;;;;12.73;3.43;;;;;;;-145.18;100.00;46676.03;5051960;28;20032;-68
2022/11/08 01:23:46;;;;;;;16.60;3.70;;;;;;;-145.18;100.00;46681.88;5052337;28;20167;-68
2022/11/08 01:26:15;;;;;;;11.27;3.53;;;;;;;-145.18;100.00;46681.88;5052491;28;20116;-68
2022/11/08 01:28:40;;;;;;;12.13;3.43;;;;;;;-145.18;100.00;46674.06;5052175;28;20021;-68
2022/11/08 01:31:15;;;;;;;11.23;3.40;;;;;;;-145.18;100.00;46679.94;5052253;28;20420;-68
2022/11/08 01:33:40;;;;;;;14.50;3.33;;;;;;;-145.18;100.00;46681.88;5051909;28;20051;-68
2022/11/08 01:36:08;;;;;;;14.63;3.93;;;;;;;-145.18;100.00;46677.97;5052137;28;20505;-68
2022/11/08 01:38:33;;;;;;;16.57;3.90;;;;;;;-145.18;100.00;46674.06;5051667;28;20490;-68
2022/11/08 01:40:59;;;;;;;13.60;3.10;;;;;;;-145.18;100.00;46679.94;5052005;28;20037;-68
2022/11/08 01:43:30;;;;;;;12.33;2.73;;;;;;;-145.18;100.00;46679.94;5051423;28;20040;-68
2022/11/08 01:46:22;;;;;;;9.40;3.13;;;;;;;-145.18;100.00;46677.97;5052098;28;20025;-68
2022/11/08 01:48:53;;;;;;;9.83;3.30;;;;;;;-145.18;100.00;46677.97;5051777;28;20036;-68
2022/11/08 01:51:24;;;;;;;18.00;2.90;;;;;;;-145.18;100.00;46676.03;5051762;28;20036;-68
2022/11/08 01:53:50;;;;;;;19.53;4.20;;;;;;;-145.18;100.00;46672.13;5051836;28;20444;-68
2022/11/08 01:56:16;;;;;;;10.37;2.87;;;;;;;-145.18;100.00;46677.97;5051691;28;20429;-68
2022/11/08 01:58:44;;;;;;;16.60;3.40;;;;;;;-145.18;100.00;46677.97;5051170;28;20037;-68
2022/11/08 02:01:11;;;;;;;12.17;2.93;;;;;;;-145.18;100.00;46679.94;5051730;28;20025;-68
2022/11/08 02:03:38;;;;;;;19.10;3.63;;;;;;;-145.18;100.00;46683.84;5033283;28;20049;-68
2022/11/08 02:06:04;;;;;;;10.87;2.53;;;;;;;-145.18;100.00;46677.97;5051619;28;20041;-68
2022/11/08 02:08:39;;;;;;;10.20;2.60;;;;;;;-145.18;100.00;46674.06;5050958;28;20513;-68
2022/11/08 02:11:06;;;;;;;12.27;2.78;;;;;;;-145.18;100.00;46681.88;5033526;28;20094;-68
2022/11/08 02:13:34;;;;;;;12.17;2.43;;;;;;;-145.18;100.00;46674.06;5050879;28;20090;-68
2022/11/08 02:16:00;;;;;;;13.53;3.13;;;;;;;-145.18;100.00;46677.97;5051272;28;20175;-68
2022/11/08 02:18:28;;;;;;;12.00;2.60;;;;;;;-145.18;100.00;46681.88;5050781;28;20552;-68
2022/11/08 02:21:55;;;;;;;7.93;2.33;;;;;;;-145.18;100.00;46679.94;5051247;28;20547;-68
2022/11/08 02:24:21;;;;;;;12.67;2.47;;;;;;;-145.18;100.00;46685.78;4988924;28;20341;-68
2022/11/08 02:26:50;;;;;;;7.47;2.27;;;;;;;-145.18;100.00;46679.94;5037695;28;20142;-68
2022/11/08 02:29:33;;;;;;;8.83;2.70;;;;;;;-145.18;100.00;46679.94;5050924;28;20025;-68
2022/11/08 02:32:00;;;;;;;10.80;2.40;;;;;;;-145.18;100.00;46683.84;5050580;28;20037;-68
2022/11/08 02:34:46;;;;;;;12.17;2.40;;;;;;;-145.18;100.00;46685.78;5050901;28;20123;-68
2022/11/08 02:37:15;;;;;;;14.13;3.90;;;;;;;-145.18;100.00;46685.78;5050632;28;20057;-67
2022/11/08 02:39:41;;;;;;;10.50;2.70;;;;;;;-145.18;100.00;46683.84;5050924;28;20572;-68
2022/11/08 02:42:12;;;;;;;6.43;2.10;;;;;;;-145.18;100.00;46681.88;5050517;28;20115;-68
2022/11/08 02:44:38;;;;;;;5.20;2.07;;;;;;;-145.18;100.00;46679.94;5050393;28;20038;-68
2022/11/08 02:47:03;;;;;;;9.47;3.03;;;;;;;-145.18;100.00;46681.88;5050550;28;20045;-68
2022/11/08 02:49:28;;;;;;;14.03;2.50;;;;;;;-145.18;100.00;46677.97;5050618;28;20043;-68
2022/11/08 02:51:54;;;;;;;12.27;2.40;;;;;;;-145.18;100.00;46687.75;5050506;28;20072;-68
2022/11/08 02:54:19;;;;;;;10.20;2.33;;;;;;;-145.18;100.00;46683.84;5050413;28;20037;-68
2022/11/08 02:56:45;;;;;;;11.07;2.33;;;;;;;-145.18;100.00;46683.84;5050008;28;20401;-68
2022/11/08 02:59:10;;;;;;;10.43;2.73;;;;;;;-145.18;100.00;46685.78;5050621;28;20068;-68
2022/11/08 03:04:01;;;;;;;13.07;2.80;;;;;;;-145.18;100.00;46681.88;5044682;23;20049;-67
2022/11/08 03:06:27;;;;;;;11.80;3.03;;;;;;;-145.18;100.00;46679.94;5032390;28;20065;-67
2022/11/08 03:08:52;;;;;;;5.30;2.00;;;;;;;-145.18;100.00;46687.75;5030129;28;20079;-67
2022/11/08 03:11:18;;;;;;;11.57;2.53;;;;;;;-145.18;100.00;46685.78;5013032;28;20044;-67
2022/11/08 03:13:43;;;;;;;5.90;1.83;;;;;;;-145.18;100.00;46683.84;5030161;28;20048;-67
2022/11/08 03:16:08;;;;;;;12.57;2.70;;;;;;;-145.18;100.00;46681.88;5030587;28;20108;-68
2022/11/08 03:18:34;;;;;;;9.90;2.57;;;;;;;-145.18;100.00;46693.59;5030473;28;20120;-68
2022/11/08 03:21:02;;;;;;;9.57;2.70;;;;;;;-145.18;100.00;46695.56;5030420;28;20072;-68
2022/11/08 03:23:28;;;;;;;6.67;2.47;;;;;;;-145.18;100.00;46679.94;5030466;28;20041;-68
2022/11/08 03:25:53;;;;;;;12.07;2.57;;;;;;;-145.18;100.00;46687.75;5030391;28;20417;-68
2022/11/08 03:28:19;;;;;;;11.80;2.80;;;;;;;-145.18;100.00;46695.56;5012740;28;20424;-68
2022/11/08 03:30:44;;;;;;;17.33;2.57;;;;;;;-145.18;100.00;46687.75;5030171;28;20052;-69
2022/11/08 03:33:10;;;;;;;10.57;2.67;;;;;;;-145.18;100.00;46685.78;5030176;28;20033;-68
2022/11/08 03:35:35;;;;;;;10.20;3.90;;;;;;;-145.18;100.00;46691.66;5030164;28;20061;-69
2022/11/08 03:38:00;;;;;;;10.23;2.90;;;;;;;-145.18;100.00;46681.88;5029901;28;20458;-68
2022/11/08 03:40:26;;;;;;;12.40;2.63;;;;;;;-145.18;100.00;46681.88;5030347;28;20458;-68
2022/11/08 03:42:51;;;;;;;8.30;3.50;;;;;;;-145.18;100.00;46683.84;5029852;28;20116;-68
2022/11/08 03:45:17;;;;;;;11.33;2.90;;;;;;;-145.18;100.00;46691.66;5030298;28;20056;-68
2022/11/08 03:47:44;;;;;;;8.17;2.80;;;;;;;-145.18;100.00;46693.59;5029750;28;20044;-68
2022/11/08 03:50:12;;;;;;;10.73;3.37;;;;;;;-145.18;100.00;46679.94;5030164;28;20033;-68
2022/11/08 03:52:43;;;;;;;11.37;3.13;;;;;;;-145.18;100.00;46685.78;5029872;28;20041;-69
2022/11/08 03:55:09;;;;;;;6.00;2.80;;;;;;;-145.18;100.00;46685.78;5029989;28;20445;-68
2022/11/08 03:57:35;;;;;;;12.37;2.60;;;;;;;-145.18;100.00;46687.75;5030149;28;20033;-68
2022/11/08 04:00:01;;;;;;;13.93;3.13;;;;;;;-145.18;100.00;46687.75;5029935;28;20171;-68
2022/11/08 04:02:26;;;;;;;11.17;2.90;;;;;;;-145.18;100.00;46689.69;5043795;28;20511;-68
2022/11/08 04:04:51;;;;;;;8.63;2.87;;;;;;;-145.18;100.00;46677.97;5049808;28;20044;-68
2022/11/08 04:07:17;;;;;;;9.07;3.10;;;;;;;-145.18;100.00;46683.84;5049503;28;20196;-68
2022/11/08 04:09:42;;;;;;;13.50;2.93;;;;;;;-145.18;100.00;46685.78;5049955;28;20041;-68
2022/11/08 04:23:04;;;;;;;6.20;2.07;;;;;;;-145.18;100.00;46683.84;5053576;28;20040;-69
2022/11/08 04:25:29;;;;;;;10.17;2.63;;;;;;;-145.18;100.00;46685.78;5053611;28;20033;-68
2022/11/08 04:27:54;;;;;;;9.63;2.63;;;;;;;-145.18;100.00;46689.69;5035603;28;20041;-68
2022/11/08 04:30:20;;;;;;;12.43;3.10;;;;;;;-145.18;100.00;46681.88;5053486;28;20041;-68
2022/11/08 04:32:45;;;;;;;19.53;3.37;;;;;;;-145.18;100.00;46689.69;5053080;28;20061;-68
2022/11/08 04:35:10;;;;;;;8.37;2.93;;;;;;;-145.18;100.00;46693.59;5053702;28;20075;-68
2022/11/08 04:37:35;;;;;;;9.23;3.13;;;;;;;-145.18;100.00;46677.97;5053348;28;20044;-68
2022/11/08 04:40:01;;;;;;;9.17;2.90;;;;;;;-145.18;100.00;46691.66;5053260;28;20084;-68
2022/11/08 04:42:26;;;;;;;8.43;3.20;;;;;;;-145.18;100.00;46687.75;5053036;28;20054;-68
2022/11/08 04:44:51;;;;;;;10.57;2.90;;;;;;;-145.18;100.00;46691.66;5053167;28;20527;-68
2022/11/08 04:47:17;;;;;;;6.80;2.17;;;;;;;-145.18;100.00;46687.75;5053212;28;20489;-69
2022/11/08 04:49:42;;;;;;;11.37;2.77;;;;;;;-145.18;100.00;46687.75;5053422;28;20025;-68
2022/11/08 04:52:07;;;;;;;10.30;2.43;;;;;;;-145.18;100.00;46689.69;5052927;28;20036;-69
2022/11/08 04:54:33;;;;;;;5.03;2.10;;;;;;;-145.18;100.00;46687.75;5052988;28;20029;-68
2022/11/08 04:56:58;;;;;;;9.73;2.70;;;;;;;-145.18;100.00;46687.75;5072001;28;20058;-68
2022/11/08 04:59:23;;;;;;;6.17;2.10;;;;;;;-145.18;100.00;46687.75;5072988;28;20127;-69
2022/11/08 05:01:49;;;;;;;12.90;2.77;;;;;;;-145.18;100.00;46687.75;5072739;28;20075;-68
2022/11/08 05:04:14;;;;;;;7.43;2.30;;;;;;;-145.18;100.00;46691.66;5072593;28;20090;-68
2022/11/08 05:06:39;;;;;;;9.17;2.90;;;;;;;-145.18;100.00;46683.84;5073422;28;20384;-68
2022/11/08 05:09:05;;;;;;;8.90;2.47;;;;;;;-145.18;100.00;46693.59;5072421;28;20385;-69
2022/11/08 05:11:30;;;;;;;9.17;2.50;;;;;;;-145.18;100.00;46685.78;5072900;28;20041;-69
2022/11/08 05:13:56;;;;;;;14.80;3.20;;;;;;;-145.18;100.00;46689.69;5072283;28;20028;-69
2022/11/08 05:16:30;;;;;;;10.03;2.20;;;;;;;-145.18;100.00;46693.59;5072481;28;20033;-68
2022/11/08 05:18:56;;;;;;;6.47;2.20;;;;;;;-145.18;100.00;46693.59;5071987;28;20043;-69
2022/11/08 05:24:09;;;;;;;6.27;2.10;;;;;;;-145.18;100.00;46699.47;5070207;28;20044;-68
2022/11/08 05:26:38;;;;;;;7.23;1.93;;;;;;;-145.18;100.00;46701.41;5072089;28;20027;-68
2022/11/08 05:29:04;;;;;;;8.80;2.20;;;;;;;-145.18;100.00;46691.66;5072177;28;20268;-68
2022/11/08 05:31:29;;;;;;;8.00;2.67;;;;;;;-145.18;100.00;46689.69;5072279;28;20032;-69
2022/11/08 05:33:55;;;;;;;6.37;2.00;;;;;;;-145.18;100.00;46693.59;5071834;28;20213;-69
2022/11/08 05:36:20;;;;;;;7.53;1.93;;;;;;;-145.18;100.00;46707.28;5071672;28;20052;-68
2022/11/08 05:38:46;;;;;;;7.07;1.77;;;;;;;-145.18;100.00;46697.50;5071878;28;20035;-69
2022/11/08 05:41:16;;;;;;;10.33;2.13;;;;;;;-145.18;100.00;46697.50;5072355;28;20119;-68
2022/11/08 05:43:44;;;;;;;5.67;1.83;;;;;;;-145.18;100.00;46699.47;5071727;28;20469;-68
2022/11/08 05:46:09;;;;;;;9.87;1.73;;;;;;;-145.18;100.00;46701.41;5071684;28;20029;-68
2022/11/08 05:48:35;;;;;;;7.43;1.80;;;;;;;-145.18;100.00;46705.31;5053409;28;20301;-68
2022/11/08 05:51:00;;;;;;;8.63;1.70;;;;;;;-145.18;100.00;46705.31;5071762;28;20041;-68
2022/11/08 05:53:26;;;;;;;8.53;2.30;;;;;;;-145.18;100.00;46707.28;5070911;28;20044;-68
2022/11/08 05:56:02;;;;;;;3.47;1.50;;;;;;;-145.18;100.00;46707.28;5070700;28;20040;-68
2022/11/08 05:58:28;;;;;;;5.77;1.63;;;;;;;-145.18;100.00;46707.28;5071464;28;20032;-69
2022/11/08 06:01:02;;;;;;;6.10;1.47;;;;;;;-145.18;100.00;46707.28;5071670;28;20029;-68
2022/11/08 06:03:28;;;;;;;9.20;3.10;;;;;;;-145.18;100.00;46711.19;5071374;28;20059;-68
2022/11/08 06:05:54;;;;;;;4.47;1.70;;;;;;;-145.18;100.00;46711.19;5071663;28;20112;-68
2022/11/08 06:08:19;;;;;;;4.83;1.60;;;;;;;-145.18;100.00;46709.22;5071773;28;20536;-69
2022/11/08 06:10:45;;;;;;;7.47;1.87;;;;;;;-145.18;100.00;46709.22;5071288;28;20086;-69
2022/11/08 06:13:10;;;;;;;6.27;1.50;;;;;;;-145.18;100.00;46711.19;5071569;28;20051;-69
2022/11/08 06:15:36;;;;;;;7.07;1.50;;;;;;;-145.18;100.00;46713.13;5053491;28;20427;-69
2022/11/08 06:18:03;;;;;;;6.00;1.60;;;;;;;-145.18;100.00;46711.19;5071322;28;20017;-68
2022/11/08 06:20:28;;;;;;;4.83;1.47;;;;;;;-145.18;100.00;46719.00;5071616;28;20028;-68
2022/11/08 06:22:54;;;;;;;7.27;2.63;;;;;;;-145.18;100.00;46713.13;5070864;28;20538;-68
2022/11/08 06:25:20;;;;;;;4.97;1.83;;;;;;;-145.18;100.00;46717.03;5071507;28;20029;-69
2022/11/08 06:27:45;;;;;;;7.17;2.00;;;;;;;-145.18;100.00;46717.03;5070960;28;20036;-68
2022/11/08 06:30:11;;;;;;;8.07;2.03;;;;;;;-145.18;100.00;46713.13;5071449;28;20028;-69
2022/11/08 06:32:37;;;;;;;6.57;1.73;;;;;;;-145.18;100.00;46719.00;5071103;28;20032;-69
2022/11/08 06:35:02;;;;;;;4.60;1.40;;;;;;;-145.18;100.00;46709.22;5070745;28;20477;-68
2022/11/08 06:37:27;;;;;;;6.87;2.00;;;;;;;-145.18;100.00;46717.03;5061649;28;20095;-69
2022/11/08 06:39:53;;;;;;;7.30;1.93;;;;;;;-145.18;100.00;46715.09;5066144;28;20028;-69
2022/11/08 06:42:18;;;;;;;9.23;2.07;;;;;;;-145.18;100.00;46717.03;5062722;28;20035;-68
2022/11/08 06:44:43;;;;;;;4.73;1.50;;;;;;;-145.18;100.00;46713.13;5069753;28;20072;-68
2022/11/08 06:47:09;;;;;;;4.47;1.80;;;;;;;-145.18;100.00;46713.13;5069941;28;20039;-68
2022/11/08 06:49:36;;;;;;;5.27;1.97;;;;;;;-145.18;100.00;46711.19;5058956;28;20028;-69
2022/11/08 06:52:01;;;;;;;6.50;1.87;;;;;;;-145.18;100.00;46715.09;5069783;28;20036;-69
2022/11/08 06:54:26;;;;;;;7.20;2.13;;;;;;;-145.18;100.00;46713.13;5069666;28;20028;-69
2022/11/08 06:56:54;;;;;;;6.00;1.77;;;;;;;-145.18;100.00;46715.09;5069809;28;20507;-68
2022/11/08 06:59:20;;;;;;;9.30;2.17;;;;;;;-145.18;100.00;46719.00;5069734;28;20040;-68
2022/11/08 07:01:46;;;;;;;6.70;2.13;;;;;;;-145.18;100.00;46713.13;5045052;28;20477;-69
2022/11/08 07:04:11;;;;;;;3.70;1.50;;;;;;;-145.18;100.00;46717.03;5065130;28;20405;-69
2022/11/08 07:06:36;;;;;;;3.43;1.60;;;;;;;-145.18;100.00;46719.00;5067506;28;20485;-68
2022/11/08 07:09:02;;;;;;;6.20;2.67;;;;;;;-145.18;100.00;46720.94;5066711;28;20188;-68
2022/11/08 07:11:27;;;;;;;6.63;1.67;;;;;;;-145.18;100.00;46720.94;5049762;28;20032;-68
2022/11/08 07:13:53;;;;;;;5.03;1.87;;;;;;;-145.18;100.00;46719.00;5068737;28;20063;-68
2022/11/08 07:16:18;;;;;;;5.50;1.60;;;;;;;-145.18;100.00;46724.84;5067756;28;20048;-68
2022/11/08 07:18:43;;;;;;;5.53;1.60;;;;;;;-145.18;100.00;46720.94;5067943;28;20103;-68
2022/11/08 07:21:09;;;;;;;3.27;1.40;;;;;;;-145.18;100.00;46722.91;5068091;28;20120;-68
2022/11/08 07:23:34;;;;;;;4.30;1.60;;;;;;;-145.18;100.00;46722.91;5069018;28;20064;-68
2022/11/08 07:26:04;;;;;;;5.10;1.70;;;;;;;-145.18;100.00;46719.00;5068689;28;20071;-68
2022/11/08 07:28:30;;;;;;;4.23;1.20;;;;;;;-145.18;100.00;46711.19;5069255;28;20032;-68
2022/11/08 07:31:01;;;;;;;4.50;1.70;;;;;;;-145.18;100.00;46695.56;5069348;28;20032;-68
2022/11/08 07:33:28;;;;;;;9.37;1.97;;;;;;;-145.18;100.00;46664.31;5069138;28;20020;-68
2022/11/08 07:35:53;;;;;;;3.20;1.40;;;;;;;-145.18;100.00;46636.94;5069119;28;20469;-68
2022/11/08 07:38:19;;;;;;;6.10;1.27;;;;;;;-145.18;100.00;46660.41;5068839;28;20043;-68
2022/11/08 07:40:45;;;;;;;3.80;1.67;;;;;;;-145.18;100.00;46654.53;5068992;28;20025;-68
2022/11/08 07:43:10;;;;;;;4.20;1.30;;;;;;;-145.18;100.00;46636.94;5068973;28;20031;-68
2022/11/08 07:45:36;;;;;;;8.33;1.60;;;;;;;-145.18;100.00;46640.88;5069303;28;20029;-68
2022/11/08 07:48:04;;;;;;;4.23;1.50;;;;;;;-145.18;100.00;46650.63;5068718;28;20040;-69
2022/11/08 07:50:30;;;;;;;2.83;1.20;;;;;;;-145.18;100.00;46636.94;5068782;28;20353;-68
2022/11/08 07:52:57;;;;;;;4.43;1.70;;;;;;;-145.18;100.00;46636.94;5068549;28;20366;-68
2022/11/08 07:55:23;;;;;;;2.63;1.20;;;;;;;-145.18;100.00;46642.81;5069104;28;20048;-69
2022/11/08 07:57:48;;;;;;;5.27;1.57;;;;;;;-145.18;100.00;46638.91;5068593;28;20040;-68
2022/11/08 08:00:14;;;;;;;4.70;1.50;;;;;;;-145.18;100.00;46642.81;5068953;28;20035;-68
2022/11/08 08:02:39;;;;;;;4.70;1.40;;;;;;;-145.18;100.00;46652.59;5030671;28;1081597;-69
2022/11/08 08:05:05;;;;;;;4.60;1.40;;;;;;;-145.18;100.00;46638.91;5051833;28;20508;-68
2022/11/08 08:07:31;;;;;;;5.13;1.63;;;;;;;-145.18;100.00;46654.53;5069855;28;20043;-68
2022/11/08 08:09:56;;;;;;;6.03;1.50;;;;;;;-145.18;100.00;46650.63;5069232;28;20036;-68
2022/11/08 08:12:21;;;;;;;2.80;1.50;;;;;;;-145.18;100.00;46656.50;5069819;28;20037;-68
2022/11/08 08:14:47;;;;;;;5.17;1.93;;;;;;;-145.18;100.00;46650.63;5069392;28;20071;-69
2022/11/08 08:17:12;;;;;;;5.60;1.40;;;;;;;-145.18;100.00;46652.59;5069451;28;20036;-68
2022/11/08 08:19:37;;;;;;;4.80;1.70;;;;;;;-145.18;100.00;46621.31;5069599;28;20049;-69
2022/11/08 08:22:03;;;;;;;7.30;1.50;;;;;;;-145.18;100.00;46652.59;5069194;28;20036;-68
2022/11/08 08:24:28;;;;;;;4.83;1.33;;;;;;;-145.18;100.00;46613.50;5069162;28;20044;-69
2022/11/08 08:26:54;;;;;;;6.83;2.90;;;;;;;-145.18;100.00;46615.47;5069466;28;20032;-69
2022/11/08 08:29:19;;;;;;;5.87;1.97;;;;;;;-145.18;100.00;46611.56;5069412;28;20043;-69
2022/11/08 08:31:44;;;;;;;4.73;1.77;;;;;;;-145.18;100.00;46617.41;5069346;28;20485;-68
2022/11/08 08:34:10;;;;;;;3.13;1.50;;;;;;;-145.18;100.00;46621.31;5068968;28;20040;-68
2022/11/08 08:36:35;;;;;;;3.23;1.70;;;;;;;-145.18;100.00;46609.59;5069371;28;20139;-68
2022/11/08 08:39:00;;;;;;;6.40;1.73;;;;;;;-145.18;100.00;46623.28;5069163;28;20491;-68
2022/11/08 08:41:26;;;;;;;7.20;1.83;;;;;;;-145.18;100.00;46617.41;5069451;28;20504;-68
2022/11/08 08:43:51;;;;;;;3.80;1.90;;;;;;;-145.18;100.00;46613.50;5068966;28;20036;-68
2022/11/08 08:46:16;;;;;;;6.67;1.80;;;;;;;-145.18;100.00;46623.28;5069170;28;20127;-68
2022/11/08 08:48:42;;;;;;;7.03;1.60;;;;;;;-145.18;100.00;46627.19;5069114;28;20132;-68
2022/11/08 08:51:07;;;;;;;4.50;1.70;;;;;;;-145.18;100.00;46627.19;5069175;28;20064;-68
2022/11/08 08:53:33;;;;;;;3.40;1.30;;;;;;;-145.18;100.00;46625.22;5051366;28;20035;-68
2022/11/08 08:55:58;;;;;;;4.63;1.60;;;;;;;-145.18;100.00;46621.31;5068769;28;20037;-68
2022/11/08 08:58:23;;;;;;;3.53;1.50;;;;;;;-145.18;100.00;46619.38;5069066;28;20075;-68
2022/11/08 09:00:49;;;;;;;5.50;1.70;;;;;;;-145.18;100.00;46623.28;5071998;28;20033;-68
2022/11/08 09:03:14;;;;;;;5.13;1.53;;;;;;;-145.18;100.00;46617.41;5072554;28;20048;-69
2022/11/08 09:05:42;;;;;;;5.73;1.60;;;;;;;-145.18;100.00;46621.31;5055038;28;20040;-68
2022/11/08 09:08:09;;;;;;;5.67;1.80;;;;;;;-145.18;100.00;46625.22;5072373;28;20044;-68
2022/11/08 09:10:34;;;;;;;5.77;1.67;;;;;;;-145.18;100.00;46627.19;5072615;28;20380;-68
2022/11/08 09:13:01;;;;;;;6.93;2.17;;;;;;;-145.18;100.00;46633.06;5072300;28;20035;-68
2022/11/08 09:15:26;;;;;;;3.40;1.50;;;;;;;-145.18;100.00;46625.22;5072603;28;20046;-69
2022/11/08 09:17:55;;;;;;;4.53;1.83;;;;;;;-145.18;100.00;46627.19;5071883;28;20115;-68
2022/11/08 09:20:21;;;;;;;4.27;1.20;;;;;;;-145.18;100.00;46629.13;5072471;28;20549;-68
2022/11/08 09:22:47;;;;;;;3.53;1.40;;;;;;;-145.18;100.00;46625.22;5072117;28;20040;-68
2022/11/08 09:25:12;;;;;;;4.57;2.20;;;;;;;-145.18;100.00;46640.88;5072336;28;20508;-69
2022/11/08 09:27:37;;;;;;;6.57;1.53;;;;;;;-145.18;100.00;46635.00;5072266;28;20040;-68
2022/11/08 09:30:04;;;;;;;3.27;1.43;;;;;;;-145.18;100.00;46636.94;5071965;28;20048;-68
2022/11/08 09:32:29;;;;;;;3.77;1.60;;;;;;;-145.18;100.00;46650.63;5072448;28;20043;-68
2022/11/08 09:34:55;;;;;;;2.77;1.30;;;;;;;-145.18;100.00;46654.53;5072058;28;20033;-68
2022/11/08 09:37:21;;;;;;;3.57;1.50;;;;;;;-145.18;100.00;46642.81;5072081;28;20519;-69
2022/11/08 09:39:47;;;;;;;3.83;2.07;;;;;;;-145.18;100.00;46652.59;5071964;28;20082;-68
2022/11/08 09:42:21;;;;;;;8.37;1.67;;;;;;;-145.18;100.00;46658.44;5072588;28;20033;-68
2022/11/08 09:45:02;;;;;;;3.97;1.60;;;;;;;-145.18;100.00;46656.50;5071685;28;20090;-68
2022/11/08 09:47:35;;;;;;;5.60;1.50;;;;;;;-145.18;100.00;46644.78;5069631;28;20431;-68
2022/11/08 09:50:24;;;;;;;3.20;1.23;;;;;;;-145.18;100.00;46648.69;5051562;28;20024;-68
2022/11/08 09:53:01;;;;;;;5.70;1.60;;;;;;;-145.18;100.00;46656.50;5051790;28;20033;-68
2022/11/08 09:55:51;;;;;;;3.87;1.63;;;;;;;-145.18;100.00;46666.25;5051853;28;20040;-68
2022/11/08 09:58:34;;;;;;;5.23;1.83;;;;;;;-145.18;100.00;46658.44;5051807;28;20132;-68
2022/11/08 10:01:01;;;;;;;4.50;1.60;;;;;;;-145.18;100.00;46650.63;5051652;28;20432;-68
2022/11/08 10:03:27;;;;;;;4.07;1.77;;;;;;;-145.18;100.00;46656.50;5069856;28;20136;-68
2022/11/08 10:06:23;;;;;;;5.73;1.70;;;;;;;-145.18;100.00;46654.53;5071164;28;20083;-68
2022/11/08 10:09:00;;;;;;;5.93;1.50;;;;;;;-145.18;100.00;46648.69;5071465;28;20186;-68
2022/11/08 10:11:44;;;;;;;8.50;1.57;;;;;;;-145.18;100.00;46648.69;5070373;28;20503;-69
2022/11/08 10:14:24;;;;;;;7.53;1.50;;;;;;;-145.18;100.00;46652.59;5053484;28;20041;-68
2022/11/08 10:17:12;;;;;;;5.23;1.83;;;;;;;-145.18;100.00;46658.44;5071268;28;20149;-68
2022/11/08 10:20:01;;;;;;;3.20;1.60;;;;;;;-145.18;100.00;46654.53;5064859;28;20032;-69
2022/11/08 10:23:04;;;;;;;5.17;1.57;;;;;;;-145.18;100.00;46642.81;5059168;28;20080;-69
2022/11/08 10:25:37;;;;;;;4.37;1.60;;;;;;;-145.18;100.00;46642.81;5051194;28;20033;-68
2022/11/08 10:28:06;;;;;;;4.90;1.77;;;;;;;-145.18;100.00;46644.78;5050569;28;20385;-69
2022/11/08 10:30:37;;;;;;;6.23;1.50;;;;;;;-145.18;100.00;46636.94;5051291;28;20029;-69
2022/11/08 10:33:25;;;;;;;4.30;1.53;;;;;;;-145.18;100.00;46633.06;5050869;28;20052;-68
2022/11/08 10:36:06;;;;;;;4.97;1.40;;;;;;;-145.18;100.00;46646.72;5050820;28;20112;-68
2022/11/08 10:38:49;;;;;;;4.30;1.60;;;;;;;-145.18;100.00;46656.50;5050865;28;20483;-69
2022/11/08 10:41:17;;;;;;;5.80;1.73;;;;;;;-145.18;100.00;46660.41;5051027;28;20430;-68
2022/11/08 10:43:52;;;;;;;5.60;1.57;;;;;;;-145.18;100.00;46656.50;5050870;28;20400;-68
2022/11/08 10:46:35;;;;;;;7.78;1.98;;;;;;;-145.18;100.00;46648.69;5051261;28;20036;-68
2022/11/08 10:49:11;;;;;;;5.20;2.00;;;;;;;-145.18;100.00;46668.22;5050453;28;20040;-68
2022/11/08 10:51:36;;;;;;;6.45;1.77;;;;;;;-145.18;100.00;46658.44;5050577;28;20051;-69
2022/11/08 10:54:02;;;;;;;13.00;1.80;;;;;;;-145.18;100.00;46660.41;5050325;28;20076;-69
2022/11/08 10:56:27;;;;;;;4.13;1.47;;;;;;;-145.18;100.00;46676.03;5050486;28;20029;-69
2022/11/08 10:58:52;;;;;;;6.60;2.03;;;;;;;-145.18;100.00;46658.44;5050318;28;20124;-68
2022/11/08 11:01:24;;;;;;;7.00;1.53;;;;;;;-145.18;100.00;46664.31;5050700;28;20434;-68
2022/11/08 11:03:51;;;;;;;3.83;1.30;;;;;;;-145.18;100.00;46677.97;5049827;28;20049;-68
2022/11/08 11:06:29;;;;;;;8.93;1.63;;;;;;;-145.18;100.00;46681.88;5050420;28;20772;-69
2022/11/08 11:08:57;;;;;;;4.70;1.50;;;;;;;-145.18;100.00;46668.22;5050000;28;20025;-68
2022/11/08 11:11:35;;;;;;;4.70;1.40;;;;;;;-145.18;100.00;46679.94;5050394;28;20427;-68
2022/11/08 11:14:15;;;;;;;5.13;1.80;;;;;;;-145.18;100.00;46676.03;5049880;28;20029;-68
2022/11/08 11:17:13;;;;;;;9.50;2.00;;;;;;;-145.18;100.00;46683.84;5049967;28;20028;-69
2022/11/08 11:19:43;;;;;;;6.33;1.90;;;;;;;-145.18;100.00;46681.88;5050128;28;20025;-68
2022/11/08 11:22:10;;;;;;;4.97;1.80;;;;;;;-145.18;100.00;46677.97;5049681;28;20029;-68
2022/11/08 11:24:46;;;;;;;5.27;1.30;;;;;;;-145.18;100.00;46687.75;5050135;28;20489;-68
2022/11/08 11:27:27;;;;;;;6.00;1.70;;;;;;;-145.18;100.00;46670.16;5050201;28;20056;-69
2022/11/08 11:30:29;;;;;;;4.07;1.70;;;;;;;-145.18;100.00;46683.84;5050452;28;20032;-69
2022/11/08 11:33:00;;;;;;;5.57;1.70;;;;;;;-145.18;100.00;46674.06;5049276;28;20036;-68
2022/11/08 11:35:46;;;;;;;5.00;1.50;;;;;;;-145.18;100.00;46695.56;5049941;28;20116;-68
2022/11/08 11:38:30;;;;;;;7.40;1.70;;;;;;;-145.18;100.00;46703.38;5050046;28;20048;-68